Time;durP1;ratioP1;P1;durP2;ratioP2;P2;SDS_P1;SDS_P2;PMS_P1;PMS_P2;Temp;Humidity;BMP_temperature;BMP_pressure;BME280_temperature;BME280_humidity;BME280_pressure;Samples;Min_cycle;Max_cycle;Signal;HPM_P1;HPM_P2
2021/12/15 00:01:01;;;;;;;65.68;27.08;;;;;;;;;;5148921;27;20405;-65
2021/12/15 00:03:27;;;;;;;63.15;28.13;;;;;;;;;;5148347;27;20045;-65
2021/12/15 00:05:54;;;;;;;68.53;27.52;;;;;;;;;;5148047;27;20071;-65
2021/12/15 00:08:20;;;;;;;58.35;27.77;;;;;;;;;;5148709;27;20469;-65
2021/12/15 00:10:48;;;;;;;58.50;28.33;;;;;;;;;;5148741;27;20039;-65
2021/12/15 00:13:15;;;;;;;;;;;;;;;;;;5149122;27;20425;-65
2021/12/15 00:15:41;;;;;;;75.05;28.80;;;;;;;;;;5148590;27;19919;-65
2021/12/15 00:18:07;;;;;;;72.45;28.67;;;;;;;;;;5130128;27;20068;-64
2021/12/15 00:20:34;;;;;;;74.63;28.48;;;;;;;;;;5147401;27;20054;-65
2021/12/15 00:23:00;;;;;;;63.50;26.80;;;;;;;;;;5130048;27;20043;-64
2021/12/15 00:25:28;;;;;;;61.63;27.65;;;;;;;;;;5148292;27;20155;-65
2021/12/15 00:27:54;;;;;;;80.25;29.77;;;;;;;;;;5130101;27;20050;-65
2021/12/15 00:30:21;;;;;;;66.70;28.83;;;;;;;;;;5148435;27;20047;-65
2021/12/15 00:32:48;;;;;;;69.78;28.35;;;;;;;;;;5148352;27;20455;-66
2021/12/15 00:35:14;;;;;;;65.88;28.90;;;;;;;;;;5147329;27;20042;-65
2021/12/15 00:37:41;;;;;;;73.60;28.02;;;;;;;;;;5148097;27;20059;-66
2021/12/15 00:40:08;;;;;;;63.78;28.70;;;;;;;;;;5148007;27;20055;-65
2021/12/15 00:42:34;;;;;;;66.82;28.23;;;;;;;;;;5148534;27;20125;-65
2021/12/15 00:45:01;;;;;;;60.78;27.98;;;;;;;;;;5129184;27;20156;-65
2021/12/15 00:47:27;;;;;;;58.17;24.92;;;;;;;;;;5147913;27;20041;-65
2021/12/15 00:49:53;;;;;;;69.68;29.60;;;;;;;;;;5147305;27;20129;-64
2021/12/15 00:52:19;;;;;;;65.38;28.52;;;;;;;;;;5146875;27;20050;-65
2021/12/15 00:54:45;;;;;;;65.53;28.02;;;;;;;;;;5129475;27;20102;-65
2021/12/15 00:57:11;;;;;;;82.28;29.33;;;;;;;;;;5148077;27;20047;-65
2021/12/15 00:59:38;;;;;;;59.38;26.58;;;;;;;;;;5147645;27;20057;-65
2021/12/15 01:02:05;;;;;;;61.45;25.10;;;;;;;;;;5147678;27;20049;-65
2021/12/15 01:04:31;;;;;;;57.47;25.25;;;;;;;;;;5129022;27;20046;-65
2021/12/15 01:07:00;;;;;;;62.60;25.85;;;;;;;;;;5129029;27;20050;-64
2021/12/15 01:09:32;;;;;;;56.63;26.27;;;;;;;;;;5147704;27;20078;-66
2021/12/15 01:19:53;;;;;;;54.97;24.17;;;;;;;;;;5147155;27;20108;-65
2021/12/15 01:22:20;;;;;;;61.60;27.40;;;;;;;;;;5146912;27;20047;-65
2021/12/15 01:24:46;;;;;;;62.75;26.40;;;;;;;;;;5146668;27;20035;-65
2021/12/15 01:27:12;;;;;;;61.13;25.65;;;;;;;;;;5147106;27;20513;-66
2021/12/15 01:29:39;;;;;;;70.43;27.45;;;;;;;;;;5147432;27;20043;-65
2021/12/15 01:32:05;;;;;;;54.33;25.90;;;;;;;;;;5147074;27;20043;-64
2021/12/15 01:34:31;;;;;;;57.47;24.85;;;;;;;;;;5146833;27;20111;-65
2021/12/15 01:36:57;;;;;;;74.18;27.05;;;;;;;;;;5146095;27;20056;-64
2021/12/15 01:39:24;;;;;;;62.50;25.83;;;;;;;;;;5146656;27;20114;-64
2021/12/15 01:41:54;;;;;;;62.15;25.90;;;;;;;;;;5147017;27;20068;-64
2021/12/15 01:46:54;;;;;;;66.70;27.83;;;;;;;;;;5146519;27;20047;-64
2021/12/15 01:49:26;;;;;;;66.85;29.50;;;;;;;;;;5128252;27;20078;-65
2021/12/15 01:51:53;;;;;;;50.30;26.05;;;;;;;;;;5146130;27;20126;-64
2021/12/15 01:54:20;;;;;;;65.05;27.65;;;;;;;;;;5146207;27;20047;-64
2021/12/15 01:56:46;;;;;;;60.75;26.85;;;;;;;;;;5146634;27;20043;-67
2021/12/15 01:59:13;;;;;;;57.15;27.67;;;;;;;;;;5146807;27;20070;-64
2021/12/15 02:01:40;;;;;;;66.70;29.23;;;;;;;;;;5146423;27;20047;-64
2021/12/15 02:04:07;;;;;;;64.28;28.08;;;;;;;;;;5146538;27;20102;-65
2021/12/15 02:06:33;;;;;;;71.82;30.65;;;;;;;;;;5146046;27;20047;-65
2021/12/15 02:09:00;;;;;;;63.40;29.23;;;;;;;;;;5146124;27;20099;-65
2021/12/15 02:11:26;;;;;;;61.50;29.52;;;;;;;;;;5146326;27;20043;-65
2021/12/15 02:13:53;;;;;;;61.60;29.30;;;;;;;;;;5127808;27;20047;-65
2021/12/15 02:16:19;;;;;;;72.47;29.55;;;;;;;;;;5146036;27;20054;-64
2021/12/15 02:18:45;;;;;;;65.82;30.88;;;;;;;;;;5127948;27;20054;-65
2021/12/15 02:21:15;;;;;;;60.75;29.35;;;;;;;;;;5145501;27;20414;-65
2021/12/15 02:23:46;;;;;;;74.28;29.48;;;;;;;;;;5145603;27;20498;-64
2021/12/15 02:26:15;;;;;;;64.88;29.40;;;;;;;;;;5127213;27;20069;-65
2021/12/15 02:28:41;;;;;;;61.70;27.80;;;;;;;;;;5127506;27;20043;-64
2021/12/15 02:31:16;;;;;;;58.65;29.30;;;;;;;;;;5145723;27;20206;-64
2021/12/15 02:39:08;;;;;;;62.95;29.25;;;;;;;;;;5145474;27;20047;-64
2021/12/15 02:41:34;;;;;;;71.53;29.25;;;;;;;;;;5145924;27;20043;-64
2021/12/15 02:44:02;;;;;;;61.58;28.83;;;;;;;;;;5145759;27;20047;-65
2021/12/15 02:46:30;;;;;;;75.80;31.92;;;;;;;;;;5146051;27;20042;-65
2021/12/15 02:48:56;;;;;;;70.03;30.75;;;;;;;;;;5126446;27;20462;-64
2021/12/15 02:51:22;;;;;;;71.45;31.83;;;;;;;;;;5145087;27;20078;-64
2021/12/15 02:53:48;;;;;;;51.28;25.70;;;;;;;;;;5145157;27;20099;-65
2021/12/15 02:56:15;;;;;;;72.85;31.45;;;;;;;;;;5145336;27;20043;-64
2021/12/15 02:59:06;;;;;;;55.83;26.98;;;;;;;;;;5145730;27;20081;-65
2021/12/15 03:01:55;;;;;;;67.07;30.10;;;;;;;;;;5127110;27;20055;-65
2021/12/15 03:07:00;;;;;;;66.72;31.92;;;;;;;;;;5144860;27;20047;-64
2021/12/15 03:17:41;;;;;;;64.75;30.73;;;;;;;;;;5126786;28;20054;-64
2021/12/15 03:20:08;;;;;;;61.70;29.60;;;;;;;;;;5126295;28;20126;-64
2021/12/15 03:22:35;;;;;;;69.03;29.55;;;;;;;;;;5145854;28;20050;-66
2021/12/15 03:25:01;;;;;;;66.22;31.85;;;;;;;;;;5126920;28;20502;-64
2021/12/15 03:33:17;;;;;;;54.38;27.65;;;;;;;;;;5145378;28;20068;-65
2021/12/15 03:33:35;;;;;;;65.32;30.38;;;;;;;;;;5144893;28;20058;-65
2021/12/15 03:36:07;;;;;;;63.53;31.23;;;;;;;;;;5125883;28;20130;-65
2021/12/15 03:38:34;;;;;;;65.03;29.27;;;;;;;;;;5145235;28;20054;-65
2021/12/15 03:41:00;;;;;;;66.80;32.60;;;;;;;;;;5126940;28;20096;-64
2021/12/15 03:43:26;;;;;;;65.85;30.85;;;;;;;;;;5126699;28;20047;-64
2021/12/15 03:45:55;;;;;;;62.88;29.30;;;;;;;;;;5145059;28;20043;-64
2021/12/15 03:48:24;;;;;;;60.00;32.13;;;;;;;;;;5134022;28;20047;-64
2021/12/15 03:50:51;;;;;;;62.58;30.75;;;;;;;;;;5123874;28;20100;-64
2021/12/15 03:53:18;;;;;;;66.85;30.55;;;;;;;;;;5124589;28;20463;-63
2021/12/15 03:55:44;;;;;;;67.32;30.92;;;;;;;;;;5124219;28;20044;-64
2021/12/15 03:58:12;;;;;;;69.47;32.15;;;;;;;;;;5106270;28;20044;-64
2021/12/15 04:00:40;;;;;;;62.38;32.42;;;;;;;;;;5126268;28;20043;-64
2021/12/15 04:03:15;;;;;;;60.80;31.98;;;;;;;;;;5147986;27;20051;-64
2021/12/15 04:05:42;;;;;;;61.63;31.38;;;;;;;;;;5129718;27;20107;-64
2021/12/15 04:08:08;;;;;;;71.15;33.45;;;;;;;;;;5148637;27;20692;-64
2021/12/15 04:10:36;;;;;;;59.25;30.17;;;;;;;;;;5130236;27;20053;-64
2021/12/15 04:13:02;;;;;;;70.15;33.25;;;;;;;;;;5148827;27;20059;-65
2021/12/15 04:15:40;;;;;;;68.65;32.83;;;;;;;;;;5129954;27;20106;-64
2021/12/15 04:18:06;;;;;;;63.22;30.92;;;;;;;;;;5128128;28;20043;-65
2021/12/15 04:20:35;;;;;;;58.50;29.15;;;;;;;;;;5109117;28;20461;-64
2021/12/15 04:23:02;;;;;;;63.58;29.67;;;;;;;;;;5127881;28;20886;-64
2021/12/15 04:25:29;;;;;;;53.22;24.85;;;;;;;;;;5127975;28;20103;-66
2021/12/15 04:27:58;;;;;;;62.78;31.35;;;;;;;;;;5127745;28;20047;-65
2021/12/15 04:30:26;;;;;;;61.38;29.77;;;;;;;;;;5128344;27;20082;-65
2021/12/15 04:32:53;;;;;;;63.40;31.13;;;;;;;;;;5148298;27;20073;-64
2021/12/15 04:35:20;;;;;;;61.53;30.50;;;;;;;;;;5147735;27;20114;-64
2021/12/15 04:37:47;;;;;;;65.88;30.77;;;;;;;;;;5148209;27;20087;-64
2021/12/15 04:40:14;;;;;;;61.17;27.88;;;;;;;;;;5147838;27;20077;-65
2021/12/15 04:42:43;;;;;;;64.53;30.02;;;;;;;;;;5148030;27;20095;-64
2021/12/15 04:45:11;;;;;;;60.42;29.38;;;;;;;;;;5147679;27;20572;-64
2021/12/15 04:47:38;;;;;;;64.40;29.38;;;;;;;;;;5148067;27;20103;-64
2021/12/15 04:50:05;;;;;;;62.63;29.17;;;;;;;;;;5147330;27;20150;-64
2021/12/15 04:52:32;;;;;;;66.75;29.85;;;;;;;;;;5129698;27;20073;-64
2021/12/15 04:54:59;;;;;;;70.75;29.15;;;;;;;;;;5147550;27;20514;-64
2021/12/15 04:57:25;;;;;;;60.47;28.10;;;;;;;;;;5148052;27;20035;-65
2021/12/15 04:59:52;;;;;;;48.92;23.40;;;;;;;;;;5129352;27;20334;-65
2021/12/15 05:02:20;;;;;;;56.00;28.02;;;;;;;;;;5147479;27;20110;-65
2021/12/15 05:04:46;;;;;;;64.80;28.98;;;;;;;;;;5147673;27;20071;-64
2021/12/15 05:07:12;;;;;;;55.53;26.80;;;;;;;;;;5147291;27;20043;-65
2021/12/15 05:09:39;;;;;;;65.15;28.45;;;;;;;;;;5147600;27;20049;-64
2021/12/15 05:12:06;;;;;;;58.47;27.80;;;;;;;;;;5146124;27;20107;-65
2021/12/15 05:14:33;;;;;;;47.00;25.75;;;;;;;;;;5147226;27;20068;-65
2021/12/15 05:16:59;;;;;;;61.65;30.52;;;;;;;;;;5129210;27;20499;-64
2021/12/15 05:19:27;;;;;;;55.13;26.55;;;;;;;;;;5128813;27;20043;-65
2021/12/15 05:21:54;;;;;;;55.30;26.58;;;;;;;;;;5146981;27;20411;-65
2021/12/15 05:26:57;;;;;;;61.60;28.23;;;;;;;;;;5147270;27;20047;-65
2021/12/15 05:29:23;;;;;;;;;;;;;;;;;;5147928;27;20047;-65
2021/12/15 05:31:50;;;;;;;58.97;27.25;;;;;;;;;;5146985;27;19966;-65
2021/12/15 05:34:16;;;;;;;70.15;29.08;;;;;;;;;;5146540;27;20047;-64
2021/12/15 05:36:43;;;;;;;70.68;31.80;;;;;;;;;;5146218;27;20051;-64
2021/12/15 05:39:10;;;;;;;54.15;29.77;;;;;;;;;;5128614;27;20092;-64
2021/12/15 05:41:36;;;;;;;56.63;29.30;;;;;;;;;;5146912;27;20043;-64
2021/12/15 05:44:06;;;;;;;59.75;29.40;;;;;;;;;;5128138;27;20082;-66
2021/12/15 05:46:33;;;;;;;63.65;28.88;;;;;;;;;;5146519;27;20070;-64
2021/12/15 05:48:59;;;;;;;59.13;30.73;;;;;;;;;;5128456;27;20072;-64
2021/12/15 05:51:25;;;;;;;70.43;30.42;;;;;;;;;;5146271;27;20067;-64
2021/12/15 05:53:51;;;;;;;67.55;29.38;;;;;;;;;;5146538;27;20047;-65
2021/12/15 05:56:18;;;;;;;75.13;31.50;;;;;;;;;;5146803;27;20103;-65
2021/12/15 05:58:45;;;;;;;59.03;30.83;;;;;;;;;;5146746;27;20122;-65
2021/12/15 06:01:11;;;;;;;56.47;29.23;;;;;;;;;;5146307;27;20071;-65
2021/12/15 06:03:38;;;;;;;60.20;28.80;;;;;;;;;;5146310;27;20289;-64
2021/12/15 06:06:04;;;;;;;73.70;31.05;;;;;;;;;;5145979;27;20032;-64
2021/12/15 06:08:30;;;;;;;60.72;28.25;;;;;;;;;;5146462;27;20440;-65
2021/12/15 06:10:57;;;;;;;58.42;27.65;;;;;;;;;;5146710;27;20039;-64
2021/12/15 06:13:25;;;;;;;58.35;28.98;;;;;;;;;;5146029;27;20517;-65
2021/12/15 06:15:52;;;;;;;63.75;29.13;;;;;;;;;;5145960;27;20313;-65
2021/12/15 06:18:19;;;;;;;54.15;26.40;;;;;;;;;;5146286;27;20049;-64
2021/12/15 06:20:46;;;;;;;69.87;30.80;;;;;;;;;;5145401;27;20047;-65
2021/12/15 06:23:18;;;;;;;68.10;31.35;;;;;;;;;;5145841;27;20299;-66
2021/12/15 06:25:45;;;;;;;69.03;29.73;;;;;;;;;;5146450;27;20429;-65
2021/12/15 06:28:12;;;;;;;60.22;29.58;;;;;;;;;;5145989;27;20068;-64
2021/12/15 06:30:38;;;;;;;66.03;30.38;;;;;;;;;;5145729;27;20042;-64
2021/12/15 06:33:05;;;;;;;60.65;28.77;;;;;;;;;;5145708;27;20528;-66
2021/12/15 06:35:32;;;;;;;64.88;28.77;;;;;;;;;;5145180;27;20043;-65
2021/12/15 06:37:58;;;;;;;62.28;27.35;;;;;;;;;;5144291;27;20124;-65
2021/12/15 06:40:25;;;;;;;55.88;26.55;;;;;;;;;;5146074;27;20088;-65
2021/12/15 06:42:51;;;;;;;61.88;28.10;;;;;;;;;;5145676;27;20051;-66
2021/12/15 06:45:22;;;;;;;65.47;28.60;;;;;;;;;;5124768;27;20129;-65
2021/12/15 06:59:10;;;;;;;58.00;26.05;;;;;;;;;;5036284;28;20052;-64
2021/12/15 07:01:37;;;;;;;55.75;25.55;;;;;;;;;;5054600;28;20540;-65
2021/12/15 07:04:03;;;;;;;54.53;27.02;;;;;;;;;;5061758;28;20064;-65
2021/12/15 07:06:29;;;;;;;58.30;25.65;;;;;;;;;;5061482;28;20675;-64
2021/12/15 07:08:55;;;;;;;51.35;25.33;;;;;;;;;;5061432;28;20128;-64
2021/12/15 07:11:22;;;;;;;61.85;26.42;;;;;;;;;;5061290;28;20045;-65
2021/12/15 07:13:49;;;;;;;51.20;26.27;;;;;;;;;;5058863;28;20048;-65
2021/12/15 07:16:18;;;;;;;50.92;25.60;;;;;;;;;;5059214;28;20057;-65
2021/12/15 07:19:05;;;;;;;59.50;26.77;;;;;;;;;;5062169;28;20041;-65
2021/12/15 07:21:35;;;;;;;50.05;23.25;;;;;;;;;;5061322;28;20052;-65
2021/12/15 07:24:01;;;;;;;44.42;23.77;;;;;;;;;;5120832;28;20051;-64
2021/12/15 07:26:27;;;;;;;49.72;24.73;;;;;;;;;;5145203;28;20087;-66
2021/12/15 07:28:53;;;;;;;60.08;26.23;;;;;;;;;;5126003;28;20111;-64
2021/12/15 07:31:20;;;;;;;44.80;23.85;;;;;;;;;;5144287;28;20092;-65
2021/12/15 07:33:47;;;;;;;52.67;23.17;;;;;;;;;;5126585;28;20506;-64
2021/12/15 07:36:15;;;;;;;44.70;23.17;;;;;;;;;;5148634;27;20093;-64
2021/12/15 07:38:41;;;;;;;41.45;21.45;;;;;;;;;;5107473;28;20086;-64
2021/12/15 07:41:23;;;;;;;42.88;20.20;;;;;;;;;;5108425;28;20048;-63
2021/12/15 07:43:49;;;;;;;42.90;22.38;;;;;;;;;;5108658;28;20052;-65
2021/12/15 07:46:16;;;;;;;51.15;24.27;;;;;;;;;;5108296;28;20126;-64
2021/12/15 07:48:42;;;;;;;45.50;22.48;;;;;;;;;;5108201;28;20079;-66
2021/12/15 07:51:09;;;;;;;50.65;24.08;;;;;;;;;;5107255;28;20140;-64
2021/12/15 07:53:36;;;;;;;45.63;22.90;;;;;;;;;;5106810;28;20051;-64
2021/12/15 07:56:02;;;;;;;41.67;22.65;;;;;;;;;;5106543;28;20056;-65
2021/12/15 07:58:29;;;;;;;46.95;24.85;;;;;;;;;;5107952;28;20044;-65
2021/12/15 08:00:58;;;;;;;41.65;22.40;;;;;;;;;;5107451;28;20079;-65
2021/12/15 08:03:25;;;;;;;46.78;21.20;;;;;;;;;;5107007;28;20156;-64
2021/12/15 08:05:52;;;;;;;43.70;19.90;;;;;;;;;;5107754;28;20081;-64
2021/12/15 08:08:19;;;;;;;39.03;20.13;;;;;;;;;;5107959;28;20044;-66
2021/12/15 08:10:46;;;;;;;34.13;18.77;;;;;;;;;;5106224;28;20073;-65
2021/12/15 08:13:14;;;;;;;36.88;19.17;;;;;;;;;;5107241;28;20044;-65
2021/12/15 08:15:41;;;;;;;43.97;19.02;;;;;;;;;;5106411;28;20044;-65
2021/12/15 08:18:07;;;;;;;36.05;19.27;;;;;;;;;;5102261;28;20058;-65
2021/12/15 08:20:34;;;;;;;41.70;17.67;;;;;;;;;;5095704;28;20075;-65
2021/12/15 08:23:00;;;;;;;35.45;17.75;;;;;;;;;;5101131;28;20508;-64
2021/12/15 08:25:27;;;;;;;35.22;18.08;;;;;;;;;;5105007;28;20047;-64
2021/12/15 08:28:30;;;;;;;40.95;19.48;;;;;;;;;;5121060;28;20040;-65
2021/12/15 08:30:59;;;;;;;33.45;15.68;;;;;;;;;;5103010;28;20036;-64
2021/12/15 08:33:25;;;;;;;34.70;17.13;;;;;;;;;;5103551;28;21257;-65
2021/12/15 08:35:53;;;;;;;31.95;16.00;;;;;;;;;;5102790;28;20044;-66
2021/12/15 08:38:19;;;;;;;37.42;16.48;;;;;;;;;;5135577;27;20055;-64
2021/12/15 08:40:46;;;;;;;28.27;15.10;;;;;;;;;;5141402;27;20055;-65
2021/12/15 08:43:12;;;;;;;34.90;16.98;;;;;;;;;;5136329;27;20122;-65
2021/12/15 08:45:40;;;;;;;30.08;14.88;;;;;;;;;;5142198;27;20043;-65
2021/12/15 08:48:07;;;;;;;33.83;13.35;;;;;;;;;;5143887;27;20103;-65
2021/12/15 08:50:34;;;;;;;25.55;14.32;;;;;;;;;;5118191;28;20176;-65
2021/12/15 08:53:02;;;;;;;33.70;14.18;;;;;;;;;;5145922;27;20096;-66
2021/12/15 08:55:29;;;;;;;35.67;15.60;;;;;;;;;;5123885;27;20501;-65
2021/12/15 08:57:58;;;;;;;40.23;14.87;;;;;;;;;;5126028;27;20047;-65
2021/12/15 09:00:26;;;;;;;28.58;15.55;;;;;;;;;;5144703;27;20126;-65
2021/12/15 09:02:52;;;;;;;29.88;16.08;;;;;;;;;;5139752;27;20061;-65
2021/12/15 09:05:21;;;;;;;35.13;16.07;;;;;;;;;;5143954;27;20490;-65
2021/12/15 09:07:49;;;;;;;33.53;14.77;;;;;;;;;;5147505;27;20046;-65
2021/12/15 09:10:15;;;;;;;33.78;14.52;;;;;;;;;;5127931;27;20083;-65
2021/12/15 09:12:41;;;;;;;36.75;15.82;;;;;;;;;;5128336;27;20039;-65
2021/12/15 09:15:08;;;;;;;30.00;15.27;;;;;;;;;;5145235;27;20043;-64
2021/12/15 09:17:34;;;;;;;32.30;15.75;;;;;;;;;;5145205;27;20039;-64
2021/12/15 09:20:00;;;;;;;32.03;14.45;;;;;;;;;;5109767;27;20073;-65
2021/12/15 09:22:26;;;;;;;30.83;15.93;;;;;;;;;;5145905;27;20118;-65
2021/12/15 09:24:53;;;;;;;35.75;15.32;;;;;;;;;;5124715;27;20047;-66
2021/12/15 09:27:19;;;;;;;31.98;14.35;;;;;;;;;;5144178;27;20050;-65
2021/12/15 09:29:45;;;;;;;36.38;14.63;;;;;;;;;;5138074;27;20034;-65
2021/12/15 09:32:11;;;;;;;27.95;13.57;;;;;;;;;;5119915;28;20127;-65
2021/12/15 09:34:38;;;;;;;26.50;13.25;;;;;;;;;;5141546;27;20035;-65
2021/12/15 09:37:05;;;;;;;27.42;13.77;;;;;;;;;;5143242;27;20138;-65
2021/12/15 09:39:31;;;;;;;33.97;12.77;;;;;;;;;;5143842;27;20047;-66
2021/12/15 09:41:59;;;;;;;25.73;11.95;;;;;;;;;;5143414;27;20293;-64
2021/12/15 09:44:27;;;;;;;27.70;12.77;;;;;;;;;;5137057;27;20063;-65
2021/12/15 09:47:21;;;;;;;;;;;;;;;;;;5144411;27;20050;-65
2021/12/15 10:03:36;;;;;;;18.33;10.43;;;;;;;;;;5122370;27;20047;-65
2021/12/15 10:06:25;;;;;;;19.63;11.32;;;;;;;;;;5142826;27;20107;-65
2021/12/15 10:12:19;;;;;;;16.67;9.65;;;;;;;;;;5122813;27;20075;-65
2021/12/15 10:17:45;;;;;;;21.05;10.50;;;;;;;;;;5142027;27;20049;-64
2021/12/15 10:20:18;;;;;;;22.63;10.52;;;;;;;;;;5110653;27;20260;-65
2021/12/15 10:22:47;;;;;;;15.45;9.02;;;;;;;;;;5123875;27;20463;-65
2021/12/15 10:25:18;;;;;;;21.73;10.00;;;;;;;;;;5123428;27;20181;-65
2021/12/15 10:28:04;;;;;;;12.30;8.60;;;;;;;;;;5124288;27;20051;-65
2021/12/15 10:30:41;;;;;;;18.48;9.02;;;;;;;;;;5143567;27;20051;-63
2021/12/15 10:33:07;;;;;;;22.42;10.18;;;;;;;;;;5141693;27;20047;-66
2021/12/15 10:35:41;;;;;;;24.05;9.70;;;;;;;;;;5141974;27;20054;-66
2021/12/15 10:38:29;;;;;;;20.73;10.07;;;;;;;;;;5122622;27;20376;-65
2021/12/15 10:40:58;;;;;;;19.83;9.15;;;;;;;;;;5138572;27;20050;-65
2021/12/15 10:43:27;;;;;;;20.55;10.43;;;;;;;;;;5141197;27;20069;-65
2021/12/15 10:45:55;;;;;;;22.67;9.95;;;;;;;;;;5142750;27;20035;-65
2021/12/15 10:48:34;;;;;;;;;;;;;;;;;;5137552;27;20578;-65
2021/12/15 10:51:01;;;;;;;22.02;10.15;;;;;;;;;;5141100;27;19923;-64
2021/12/15 10:53:35;;;;;;;22.60;10.10;;;;;;;;;;5142203;27;20039;-64
2021/12/15 10:56:09;;;;;;;18.10;9.98;;;;;;;;;;5140343;27;20135;-64
2021/12/15 10:58:37;;;;;;;22.50;10.05;;;;;;;;;;5144630;27;20062;-65
2021/12/15 11:01:05;;;;;;;18.83;9.63;;;;;;;;;;5138745;27;20043;-65
2021/12/15 11:03:38;;;;;;;23.15;9.60;;;;;;;;;;5124520;27;20472;-65
2021/12/15 11:06:27;;;;;;;19.80;8.75;;;;;;;;;;5104877;27;20102;-65
2021/12/15 11:09:12;;;;;;;16.13;10.45;;;;;;;;;;5141077;27;20047;-65
2021/12/15 11:11:38;;;;;;;23.00;9.65;;;;;;;;;;5139786;27;20395;-65
2021/12/15 11:14:24;;;;;;;20.55;9.32;;;;;;;;;;5141205;28;20483;-66
2021/12/15 11:17:08;;;;;;;14.55;8.68;;;;;;;;;;5141160;28;20301;-65
2021/12/15 11:19:58;;;;;;;21.33;9.68;;;;;;;;;;5107799;28;20043;-65
2021/12/15 11:22:31;;;;;;;16.23;9.07;;;;;;;;;;5130061;28;20077;-66
2021/12/15 11:24:57;;;;;;;22.05;9.25;;;;;;;;;;5122983;28;20070;-65
2021/12/15 11:27:23;;;;;;;18.40;8.73;;;;;;;;;;5144025;28;20039;-65
2021/12/15 11:29:49;;;;;;;23.70;9.80;;;;;;;;;;5142697;27;20039;-65
2021/12/15 11:32:34;;;;;;;16.33;8.52;;;;;;;;;;5139889;28;20048;-65
2021/12/15 11:35:02;;;;;;;18.90;9.05;;;;;;;;;;5142740;28;20054;-66
2021/12/15 11:37:48;;;;;;;15.32;8.77;;;;;;;;;;5143431;28;20144;-65
2021/12/15 11:40:15;;;;;;;13.35;7.20;;;;;;;;;;5138892;28;20039;-65
2021/12/15 11:42:42;;;;;;;18.30;9.02;;;;;;;;;;5123100;28;20064;-65
2021/12/15 11:45:10;;;;;;;19.80;8.02;;;;;;;;;;5142353;28;20137;-65
2021/12/15 11:47:37;;;;;;;18.27;7.85;;;;;;;;;;5144499;28;20050;-64
2021/12/15 11:50:09;;;;;;;19.15;7.85;;;;;;;;;;5124066;28;20058;-65
2021/12/15 11:52:40;;;;;;;15.05;7.05;;;;;;;;;;5138510;28;20035;-65
2021/12/15 11:55:07;;;;;;;16.05;6.30;;;;;;;;;;5142426;28;20081;-65
2021/12/15 11:57:34;;;;;;;14.18;5.72;;;;;;;;;;5121922;28;20043;-65
2021/12/15 12:00:05;;;;;;;12.43;6.07;;;;;;;;;;5136249;28;20047;-65
2021/12/15 12:02:36;;;;;;;15.65;5.03;;;;;;;;;;5139120;28;20296;-65
2021/12/15 12:05:07;;;;;;;14.05;4.40;;;;;;;;;;5141936;28;20043;-65
2021/12/15 12:07:33;;;;;;;10.65;4.38;;;;;;;;;;5119593;28;20043;-65
2021/12/15 12:10:10;;;;;;;12.27;4.20;;;;;;;;;;5139306;28;20039;-65
2021/12/15 12:12:41;;;;;;;12.05;4.60;;;;;;;;;;5136893;28;20050;-65
2021/12/15 12:15:17;;;;;;;9.65;3.88;;;;;;;;;;5117907;28;20047;-65
2021/12/15 12:17:45;;;;;;;9.67;3.73;;;;;;;;;;5138825;28;20043;-65
2021/12/15 12:20:17;;;;;;;12.45;4.10;;;;;;;;;;5138720;28;20351;-65
2021/12/15 12:22:45;;;;;;;8.15;4.30;;;;;;;;;;5125500;27;20103;-65
2021/12/15 12:25:11;;;;;;;;;;;;;;;;;;5144404;27;20039;-64
2021/12/15 12:27:39;;;;;;;12.38;4.15;;;;;;;;;;5146482;27;19930;-64
2021/12/15 12:30:08;;;;;;;6.40;3.50;;;;;;;;;;5145945;27;20051;-64
2021/12/15 12:32:35;;;;;;;13.40;3.90;;;;;;;;;;5143258;27;20483;-64
2021/12/15 12:35:03;;;;;;;8.10;2.97;;;;;;;;;;5140065;27;20050;-64
2021/12/15 12:37:29;;;;;;;;;;;;;;;;;;5145351;27;20051;-65
2021/12/15 12:39:58;;;;;;;13.13;3.13;;;;;;;;;;5126499;27;20352;-66
2021/12/15 12:42:32;;;;;;;8.45;2.58;;;;;;;;;;5138603;27;20035;-65
2021/12/15 12:45:09;;;;;;;10.02;2.72;;;;;;;;;;5145075;27;20039;-65
2021/12/15 12:47:41;;;;;;;3.53;2.03;;;;;;;;;;5145159;27;20081;-64
2021/12/15 13:01:09;;;;;;;2.97;1.48;;;;;;;;;;5139534;27;20043;-65
2021/12/15 13:03:37;;;;;;;8.52;2.25;;;;;;;;;;5139332;27;20047;-65
2021/12/15 13:06:10;;;;;;;9.98;2.90;;;;;;;;;;5124439;27;20411;-65
2021/12/15 13:08:37;;;;;;;5.93;1.70;;;;;;;;;;5142852;27;20054;-65
2021/12/15 13:11:09;;;;;;;6.38;2.05;;;;;;;;;;5143625;27;20047;-65
2021/12/15 13:13:52;;;;;;;4.93;2.05;;;;;;;;;;5141037;27;20065;-65
2021/12/15 13:16:36;;;;;;;7.40;1.73;;;;;;;;;;5125751;27;20043;-65
2021/12/15 13:19:22;;;;;;;6.93;2.35;;;;;;;;;;5137974;27;20103;-65
2021/12/15 13:30:43;;;;;;;10.35;2.85;;;;;;;;;;5143259;27;20050;-65
2021/12/15 13:33:16;;;;;;;3.35;1.48;;;;;;;;;;5142201;27;20043;-65
2021/12/15 13:35:47;;;;;;;6.43;1.58;;;;;;;;;;5144888;27;20055;-65
2021/12/15 13:38:15;;;;;;;5.22;1.55;;;;;;;;;;5146134;27;20495;-65
2021/12/15 13:40:44;;;;;;;7.53;2.45;;;;;;;;;;5143677;27;20054;-64
2021/12/15 13:43:30;;;;;;;4.28;1.98;;;;;;;;;;5142594;27;20581;-65
2021/12/15 13:45:57;;;;;;;6.85;1.60;;;;;;;;;;5125106;27;20175;-65
2021/12/15 13:48:42;;;;;;;7.68;2.47;;;;;;;;;;5123845;27;20102;-65
2021/12/15 13:51:08;;;;;;;6.78;1.80;;;;;;;;;;5121816;27;20057;-65
2021/12/15 13:53:35;;;;;;;6.20;2.13;;;;;;;;;;5125148;27;20047;-65
2021/12/15 13:56:01;;;;;;;5.03;1.50;;;;;;;;;;5140946;27;20043;-65
2021/12/15 13:58:31;;;;;;;6.10;1.83;;;;;;;;;;5142147;27;20108;-66
2021/12/15 14:00:59;;;;;;;13.05;1.83;;;;;;;;;;5136284;27;20059;-65
2021/12/15 14:03:25;;;;;;;;;;;;;;;;;;5124328;27;20043;-66
2021/12/15 14:06:03;;;;;;;8.07;2.00;;;;;;;;;;5123833;27;19923;-65
2021/12/15 14:08:43;;;;;;;5.20;2.33;;;;;;;;;;5122870;27;20508;-66
2021/12/15 14:11:18;;;;;;;5.78;1.45;;;;;;;;;;5142383;27;20051;-65
2021/12/15 14:13:46;;;;;;;4.15;1.10;;;;;;;;;;5141019;27;20054;-65
2021/12/15 14:16:13;;;;;;;9.73;1.55;;;;;;;;;;5143536;27;20046;-66
2021/12/15 14:18:39;;;;;;;7.80;1.80;;;;;;;;;;5142951;27;20035;-66
2021/12/15 14:21:11;;;;;;;2.70;1.40;;;;;;;;;;5124115;27;20444;-64
2021/12/15 14:23:43;;;;;;;8.32;1.80;;;;;;;;;;5142932;27;20038;-65
2021/12/15 14:26:11;;;;;;;7.53;1.83;;;;;;;;;;5143385;27;20501;-65
2021/12/15 14:28:40;;;;;;;7.47;2.17;;;;;;;;;;5124031;27;20047;-65
2021/12/15 14:31:09;;;;;;;4.43;1.80;;;;;;;;;;5143170;27;20142;-65
2021/12/15 14:33:37;;;;;;;4.97;1.63;;;;;;;;;;5141349;27;20376;-65
2021/12/15 14:36:29;;;;;;;6.00;1.70;;;;;;;;;;5143398;27;20039;-64
2021/12/15 14:39:00;;;;;;;5.65;1.80;;;;;;;;;;5139029;27;20081;-64
2021/12/15 14:41:29;;;;;;;13.32;2.30;;;;;;;;;;5144547;27;20062;-65
2021/12/15 14:43:57;;;;;;;3.50;2.10;;;;;;;;;;5137493;27;20850;-65
2021/12/15 14:46:32;;;;;;;4.00;1.65;;;;;;;;;;5119369;27;20047;-66
2021/12/15 14:49:25;;;;;;;4.22;1.80;;;;;;;;;;5101926;27;20039;-65
2021/12/15 14:51:52;;;;;;;7.70;1.90;;;;;;;;;;5036623;28;20116;-65
2021/12/15 14:54:19;;;;;;;7.78;1.85;;;;;;;;;;5033893;28;20836;-65
2021/12/15 14:56:51;;;;;;;4.13;1.80;;;;;;;;;;5012956;28;20100;-64
2021/12/15 14:59:19;;;;;;;5.25;1.88;;;;;;;;;;5015231;28;20057;-65
2021/12/15 15:01:45;;;;;;;;;;;;;;;;;;5018750;28;20054;-65
2021/12/15 15:04:13;;;;;;;5.10;2.10;;;;;;;;;;5032641;28;19931;-65
2021/12/15 15:06:39;;;;;;;5.72;1.92;;;;;;;;;;5030085;28;20441;-65
2021/12/15 15:09:10;;;;;;;5.10;1.65;;;;;;;;;;5020460;28;20540;-65
2021/12/15 15:11:36;;;;;;;3.60;1.70;;;;;;;;;;5018807;28;20091;-65
2021/12/15 15:14:02;;;;;;;5.88;2.00;;;;;;;;;;5035682;28;20045;-65
2021/12/15 15:16:34;;;;;;;7.50;2.75;;;;;;;;;;5035067;28;20049;-65
2021/12/15 15:19:15;;;;;;;8.35;2.20;;;;;;;;;;5013381;28;20038;-64
2021/12/15 15:21:41;;;;;;;10.60;2.17;;;;;;;;;;5031970;28;20068;-64
2021/12/15 15:24:07;;;;;;;7.22;1.50;;;;;;;;;;5034091;28;20042;-65
2021/12/15 15:26:33;;;;;;;6.75;1.77;;;;;;;;;;5015816;28;20179;-64
2021/12/15 15:29:00;;;;;;;5.90;1.98;;;;;;;;;;5103063;28;20129;-64
2021/12/15 15:31:35;;;;;;;4.57;1.48;;;;;;;;;;5141911;28;20039;-64
2021/12/15 15:34:01;;;;;;;4.82;1.98;;;;;;;;;;5139046;28;20070;-65
2021/12/15 15:36:28;;;;;;;8.57;1.95;;;;;;;;;;5141668;28;20039;-65
2021/12/15 15:38:56;;;;;;;7.80;1.60;;;;;;;;;;5139802;28;20055;-65
2021/12/15 15:41:26;;;;;;;4.25;1.60;;;;;;;;;;5141155;28;20468;-65
2021/12/15 15:43:54;;;;;;;6.82;1.85;;;;;;;;;;5141716;27;20035;-65
2021/12/15 15:46:20;;;;;;;;;;;;;;;;;;5142280;28;20047;-65
2021/12/15 15:48:47;;;;;;;5.13;1.65;;;;;;;;;;5138673;28;19923;-65
2021/12/15 15:51:15;;;;;;;7.13;1.67;;;;;;;;;;5142047;28;20095;-64
2021/12/15 15:53:42;;;;;;;3.55;1.38;;;;;;;;;;5140321;28;20107;-65
2021/12/15 15:56:14;;;;;;;6.30;1.65;;;;;;;;;;5143210;27;20054;-64
2021/12/15 15:58:44;;;;;;;4.85;1.98;;;;;;;;;;5129593;27;20099;-64
2021/12/15 16:01:11;;;;;;;4.20;1.50;;;;;;;;;;5143262;27;20160;-64